Time;durP1;ratioP1;P1;durP2;ratioP2;P2;SDS_P1;SDS_P2;PMS_P1;PMS_P2;Temp;Humidity;BMP_temperature;BMP_pressure;BME280_temperature;BME280_humidity;BME280_pressure;Samples;Min_cycle;Max_cycle;Signal;HPM_P1;HPM_P2
2023/04/12 00:02:19;;;;;;;1.17;0.53;;;8.90;99.90;;;;;;5073189;28;20953;-80
2023/04/12 00:04:53;;;;;;;0.60;0.33;;;8.80;99.90;;;;;;5073287;28;20442;-80
2023/04/12 00:07:20;;;;;;;3.20;0.50;;;8.70;99.90;;;;;;5073091;28;21039;-80
2023/04/12 00:09:48;;;;;;;0.90;0.63;;;8.60;99.90;;;;;;5073379;28;20878;-80
2023/04/12 00:12:16;;;;;;;0.80;0.60;;;8.50;99.90;;;;;;5073456;28;20450;-80
2023/04/12 00:14:43;;;;;;;0.60;0.50;;;8.40;99.90;;;;;;5072746;28;20954;-80
2023/04/12 00:17:10;;;;;;;4.13;0.70;;;8.30;99.90;;;;;;5072881;28;20452;-79
2023/04/12 00:19:40;;;;;;;0.53;0.53;;;8.20;99.90;;;;;;5073296;28;20526;-79
2023/04/12 00:22:07;;;;;;;1.20;0.60;;;8.10;99.90;;;;;;5073027;28;20967;-79
2023/04/12 00:24:33;;;;;;;0.40;0.30;;;8.00;99.90;;;;;;5073862;28;20445;-79
2023/04/12 00:27:01;;;;;;;0.80;0.53;;;8.00;99.90;;;;;;5073214;28;20446;-80
2023/04/12 00:29:28;;;;;;;0.53;0.50;;;8.00;99.90;;;;;;5073205;28;20473;-79
2023/04/12 00:31:55;;;;;;;3.17;0.60;;;7.90;99.90;;;;;;5073268;28;20441;-79
2023/04/12 00:34:21;;;;;;;4.20;0.70;;;7.90;99.90;;;;;;5073468;28;20453;-79
2023/04/12 00:36:48;;;;;;;0.53;0.53;;;7.90;99.90;;;;;;5072933;28;20452;-79
2023/04/12 00:39:15;;;;;;;0.50;0.50;;;7.90;99.90;;;;;;5073097;28;20445;-79
2023/04/12 00:41:41;;;;;;;0.43;0.43;;;7.90;99.90;;;;;;5072868;28;20444;-79
2023/04/12 00:44:09;;;;;;;0.60;0.50;;;7.80;99.90;;;;;;5072809;28;20452;-79
2023/04/12 00:46:36;;;;;;;0.40;0.40;;;7.80;99.90;;;;;;5072810;28;20585;-78
2023/04/12 00:49:03;;;;;;;0.60;0.50;;;7.80;99.90;;;;;;5072999;28;20864;-79
2023/04/12 00:51:32;;;;;;;1.00;0.60;;;7.80;99.90;;;;;;5072966;28;20473;-79
2023/04/12 00:54:00;;;;;;;3.03;0.60;;;7.80;99.90;;;;;;5072693;28;20929;-79
2023/04/12 00:56:27;;;;;;;0.40;0.37;;;7.70;99.90;;;;;;5072952;28;20450;-78
2023/04/12 00:58:55;;;;;;;2.50;0.83;;;7.70;99.90;;;;;;5072745;28;20437;-79
2023/04/12 01:01:23;;;;;;;0.40;0.40;;;7.70;99.90;;;;;;5072916;28;20466;-78
2023/04/12 01:03:51;;;;;;;0.40;0.40;;;7.60;99.90;;;;;;5072603;28;20937;-78
2023/04/12 01:06:28;;;;;;;0.40;0.40;;;7.60;99.90;;;;;;5072960;28;20437;-78
2023/04/12 01:09:02;;;;;;;0.30;0.30;;;7.60;99.90;;;;;;5072817;28;20473;-78
2023/04/12 01:11:32;;;;;;;0.30;0.30;;;7.60;99.90;;;;;;5072829;28;20473;-78
2023/04/12 01:14:05;;;;;;;0.50;0.40;;;7.60;99.90;;;;;;5072883;28;20437;-78
2023/04/12 01:16:39;;;;;;;1.33;0.60;;;7.60;99.90;;;;;;5072560;28;20901;-78
2023/04/12 01:19:19;;;;;;;0.43;0.43;;;7.50;99.90;;;;;;5072859;28;20520;-78
2023/04/12 01:22:01;;;;;;;0.40;0.40;;;7.50;99.90;;;;;;5072526;28;20908;-78
2023/04/12 01:24:40;;;;;;;1.20;0.53;;;7.50;99.90;;;;;;5072784;28;20430;-79
2023/04/12 01:27:15;;;;;;;0.60;0.60;;;7.40;99.90;;;;;;5074201;28;20441;-78
2023/04/12 01:29:48;;;;;;;0.40;0.33;;;7.40;99.90;;;;;;5076265;28;20514;-78
2023/04/12 01:32:15;;;;;;;2.40;0.60;;;7.40;99.90;;;;;;5076067;28;20430;-79
2023/04/12 01:34:44;;;;;;;1.27;0.77;;;7.30;99.90;;;;;;5076315;28;20449;-79
2023/04/12 01:37:12;;;;;;;0.40;0.37;;;7.30;99.90;;;;;;5075894;28;20917;-79
2023/04/12 01:39:39;;;;;;;0.50;0.50;;;7.20;99.90;;;;;;5075772;28;20468;-79
2023/04/12 01:42:06;;;;;;;0.67;0.40;;;7.20;99.90;;;;;;5076149;28;20461;-79
2023/04/12 01:44:32;;;;;;;0.83;0.83;;;7.20;99.90;;;;;;5076185;28;20464;-79
2023/04/12 01:47:00;;;;;;;0.50;0.50;;;7.20;99.90;;;;;;5075751;28;20531;-79
2023/04/12 01:49:35;;;;;;;0.40;0.30;;;7.20;99.90;;;;;;5075586;28;20526;-79
2023/04/12 01:52:12;;;;;;;0.50;0.47;;;7.20;99.90;;;;;;5076027;28;20468;-79
2023/04/12 01:54:41;;;;;;;0.33;0.33;;;7.20;99.90;;;;;;5075958;28;20430;-79
2023/04/12 01:57:09;;;;;;;2.43;0.60;;;7.20;99.90;;;;;;5075607;28;20941;-78
2023/04/12 01:59:40;;;;;;;0.40;0.30;;;7.20;99.90;;;;;;5075775;28;20465;-79
2023/04/12 02:02:10;;;;;;;0.97;0.60;;;7.20;99.90;;;;;;5075793;28;20453;-79
2023/04/12 02:04:38;;;;;;;0.80;0.67;;;7.10;99.90;;;;;;5075990;28;20917;-79
2023/04/12 02:07:04;;;;;;;3.03;0.63;;;7.10;99.90;;;;;;5075769;28;20480;-79
2023/04/12 02:09:36;;;;;;;0.90;0.40;;;7.10;99.90;;;;;;5075186;28;20985;-79
2023/04/12 02:12:03;;;;;;;0.87;0.50;;;7.10;99.90;;;;;;5075655;28;20434;-79
2023/04/12 02:14:30;;;;;;;0.50;0.50;;;7.10;99.90;;;;;;5075599;28;20438;-79
2023/04/12 02:17:00;;;;;;;0.50;0.50;;;7.00;99.90;;;;;;5075206;28;20479;-79
2023/04/12 02:19:29;;;;;;;0.30;0.27;;;7.00;99.90;;;;;;5075421;28;20487;-79
2023/04/12 02:21:55;;;;;;;0.77;0.50;;;7.00;99.90;;;;;;5075115;28;20859;-78
2023/04/12 02:24:22;;;;;;;0.40;0.40;;;7.00;99.90;;;;;;5075608;28;20854;-78
2023/04/12 02:26:49;;;;;;;0.80;0.63;;;7.00;99.90;;;;;;5075318;28;20457;-78
2023/04/12 02:29:16;;;;;;;1.70;0.40;;;7.00;99.90;;;;;;5075112;28;20540;-78
2023/04/12 02:31:43;;;;;;;0.50;0.50;;;7.00;99.90;;;;;;5075230;28;20496;-79
2023/04/12 02:34:09;;;;;;;0.40;0.40;;;7.10;99.90;;;;;;5075170;28;20449;-79
2023/04/12 02:36:37;;;;;;;0.47;0.47;;;7.10;99.90;;;;;;5075136;28;20506;-79
2023/04/12 02:39:04;;;;;;;0.50;0.40;;;7.00;99.90;;;;;;5074245;28;20448;-79
2023/04/12 02:41:31;;;;;;;0.37;0.30;;;7.10;99.90;;;;;;5074685;28;20560;-79
2023/04/12 02:43:57;;;;;;;0.60;0.47;;;7.00;99.90;;;;;;5074983;28;20788;-79
2023/04/12 02:46:26;;;;;;;0.73;0.73;;;7.00;99.90;;;;;;5074512;28;20562;-79
2023/04/12 02:48:52;;;;;;;0.90;0.67;;;7.00;99.90;;;;;;5074803;28;20801;-79
2023/04/12 02:51:19;;;;;;;0.70;0.37;;;7.10;99.90;;;;;;5074748;28;20595;-79
2023/04/12 02:53:47;;;;;;;0.60;0.47;;;7.00;99.90;;;;;;5075574;28;20452;-78
2023/04/12 02:56:17;;;;;;;0.40;0.30;;;7.10;99.90;;;;;;5074738;28;20844;-79
2023/04/12 02:58:44;;;;;;;0.57;0.50;;;7.00;99.90;;;;;;5074752;28;20444;-79
2023/04/12 03:01:12;;;;;;;0.53;0.37;;;6.90;99.90;;;;;;5074564;28;20473;-79
2023/04/12 03:03:39;;;;;;;0.60;0.40;;;6.90;99.90;;;;;;5074595;28;20458;-81
2023/04/12 03:06:08;;;;;;;0.30;0.30;;;6.90;99.90;;;;;;5074231;28;20984;-81
2023/04/12 03:08:35;;;;;;;0.40;0.30;;;6.90;99.90;;;;;;5074362;28;20477;-81
2023/04/12 03:11:03;;;;;;;0.60;0.53;;;7.00;99.90;;;;;;5074378;28;20515;-81
2023/04/12 03:13:29;;;;;;;0.40;0.40;;;7.00;99.90;;;;;;5074088;28;20503;-80
2023/04/12 03:15:59;;;;;;;0.40;0.30;;;7.00;99.90;;;;;;5074257;28;20952;-81
2023/04/12 03:18:26;;;;;;;0.80;0.80;;;7.00;99.90;;;;;;5074282;28;20441;-81
2023/04/12 03:20:53;;;;;;;0.37;0.30;;;7.00;99.90;;;;;;5074096;28;20868;-80
2023/04/12 03:23:20;;;;;;;0.60;0.43;;;7.00;99.90;;;;;;5074221;28;20453;-80
2023/04/12 03:25:46;;;;;;;0.30;0.30;;;7.00;99.90;;;;;;5074148;28;20453;-80
2023/04/12 03:28:14;;;;;;;0.40;0.30;;;7.00;99.90;;;;;;5074055;28;20453;-80
2023/04/12 03:30:41;;;;;;;0.30;0.30;;;7.10;99.90;;;;;;5074030;28;20523;-80
2023/04/12 03:33:08;;;;;;;0.80;0.30;;;7.00;99.90;;;;;;5074059;28;20446;-80
2023/04/12 03:35:35;;;;;;;0.50;0.40;;;7.00;99.90;;;;;;5073664;28;20847;-80
2023/04/12 03:38:01;;;;;;;0.43;0.40;;;7.00;99.90;;;;;;5074165;28;20449;-80
2023/04/12 03:40:28;;;;;;;0.40;0.30;;;7.00;99.90;;;;;;5073380;28;20472;-80
2023/04/12 03:42:55;;;;;;;0.40;0.40;;;7.00;99.90;;;;;;5074683;28;20473;-80
2023/04/12 03:45:24;;;;;;;0.60;0.37;;;7.00;99.90;;;;;;5073690;28;20454;-80
2023/04/12 03:47:50;;;;;;;0.40;0.30;;;7.00;99.90;;;;;;5073316;28;20477;-80
2023/04/12 03:50:17;;;;;;;0.50;0.40;;;6.90;99.90;;;;;;5073512;28;20492;-80
2023/04/12 03:52:44;;;;;;;0.50;0.50;;;6.90;99.90;;;;;;5073716;28;20472;-80
2023/04/12 03:55:12;;;;;;;0.57;0.57;;;6.90;99.90;;;;;;5073636;28;20444;-80
2023/04/12 03:57:39;;;;;;;0.43;0.30;;;6.90;99.90;;;;;;5073616;28;20445;-80
2023/04/12 04:00:08;;;;;;;0.40;0.40;;;6.90;99.90;;;;;;5073473;28;20462;-80
2023/04/12 04:02:37;;;;;;;0.40;0.30;;;6.80;99.90;;;;;;5073590;28;20487;-80
2023/04/12 04:05:04;;;;;;;0.30;0.30;;;6.80;99.90;;;;;;5073530;28;20449;-80
2023/04/12 04:07:31;;;;;;;0.30;0.30;;;6.80;99.90;;;;;;5073514;28;20792;-80
2023/04/12 04:09:58;;;;;;;0.40;0.30;;;6.80;99.90;;;;;;5073292;28;20858;-80
2023/04/12 04:12:26;;;;;;;0.50;0.40;;;6.80;99.90;;;;;;5073741;28;20445;-80
2023/04/12 04:14:53;;;;;;;0.30;0.30;;;6.80;99.90;;;;;;5074048;28;20454;-80
2023/04/12 04:17:20;;;;;;;0.40;0.37;;;6.80;99.90;;;;;;5073413;28;20477;-81
2023/04/12 04:19:48;;;;;;;0.60;0.60;;;6.80;99.90;;;;;;5073311;28;20468;-80
2023/04/12 04:22:16;;;;;;;0.30;0.30;;;6.80;99.90;;;;;;5073409;28;20477;-81
2023/04/12 04:24:43;;;;;;;0.30;0.30;;;6.80;99.90;;;;;;5073292;28;20461;-81
2023/04/12 04:27:09;;;;;;;0.50;0.50;;;6.70;99.90;;;;;;5073321;28;20453;-81
2023/04/12 04:29:43;;;;;;;1.93;0.80;;;6.70;99.90;;;;;;5073162;28;20488;-80
2023/04/12 04:32:09;;;;;;;0.30;0.30;;;6.70;99.90;;;;;;5073302;28;20430;-80
2023/04/12 04:34:36;;;;;;;0.90;0.80;;;6.70;99.90;;;;;;5072957;28;20438;-80
2023/04/12 04:37:05;;;;;;;0.40;0.40;;;6.70;99.90;;;;;;5073178;28;20541;-81
2023/04/12 04:39:31;;;;;;;0.40;0.40;;;6.70;99.90;;;;;;5072800;28;20476;-80
2023/04/12 04:41:58;;;;;;;0.43;0.43;;;6.70;99.90;;;;;;5073199;28;20926;-80
2023/04/12 04:44:25;;;;;;;0.40;0.40;;;6.70;99.90;;;;;;5073130;28;20449;-80
2023/04/12 04:46:51;;;;;;;0.30;0.30;;;6.70;99.90;;;;;;5072946;28;20492;-81
2023/04/12 04:49:18;;;;;;;0.60;0.57;;;6.70;99.90;;;;;;5072965;28;20484;-80
2023/04/12 04:51:45;;;;;;;0.50;0.50;;;6.70;99.90;;;;;;5073089;28;20446;-80
2023/04/12 04:54:15;;;;;;;0.50;0.30;;;6.70;99.90;;;;;;5073027;28;20449;-80
2023/04/12 04:56:42;;;;;;;0.40;0.33;;;6.60;99.90;;;;;;5073017;28;20453;-81
2023/04/12 04:59:08;;;;;;;0.30;0.30;;;6.60;99.90;;;;;;5073237;28;20445;-81
2023/04/12 05:01:36;;;;;;;0.47;0.47;;;6.60;99.90;;;;;;5073641;28;20468;-80
2023/04/12 05:04:02;;;;;;;0.50;0.50;;;6.60;99.90;;;;;;5076840;28;20453;-81
2023/04/12 05:06:29;;;;;;;0.53;0.43;;;6.60;99.90;;;;;;5076908;28;20567;-81
2023/04/12 05:08:56;;;;;;;0.40;0.40;;;6.70;99.90;;;;;;5076710;28;20543;-80
2023/04/12 05:11:24;;;;;;;0.30;0.30;;;6.70;99.90;;;;;;5076672;28;20470;-80
2023/04/12 05:13:51;;;;;;;0.50;0.40;;;6.70;99.90;;;;;;5076709;28;20457;-80
2023/04/12 05:16:17;;;;;;;0.40;0.30;;;6.70;99.90;;;;;;5076682;28;20440;-80
2023/04/12 05:18:44;;;;;;;0.43;0.40;;;6.60;99.90;;;;;;5076735;28;20461;-80
2023/04/12 05:21:11;;;;;;;0.57;0.57;;;6.60;99.90;;;;;;5076497;28;20505;-80
2023/04/12 05:23:45;;;;;;;0.63;0.47;;;6.60;99.90;;;;;;5076514;28;20449;-80
2023/04/12 05:26:12;;;;;;;0.37;0.30;;;6.70;99.90;;;;;;5076484;28;20429;-80
2023/04/12 05:28:40;;;;;;;0.97;0.50;;;6.70;99.90;;;;;;5076347;28;20449;-80
2023/04/12 05:31:08;;;;;;;0.40;0.40;;;6.60;99.90;;;;;;5076350;28;20829;-81
2023/04/12 05:33:35;;;;;;;1.23;0.73;;;6.70;99.90;;;;;;5076316;28;20448;-80
2023/04/12 05:36:02;;;;;;;0.40;0.40;;;6.70;99.90;;;;;;5075962;28;20945;-80
2023/04/12 05:38:29;;;;;;;0.60;0.50;;;6.70;99.90;;;;;;5076368;28;20449;-78
2023/04/12 05:40:55;;;;;;;1.23;0.50;;;6.70;99.90;;;;;;5076088;28;20462;-78
2023/04/12 05:43:22;;;;;;;0.40;0.40;;;6.80;99.90;;;;;;5077139;28;20820;-79
2023/04/12 05:45:50;;;;;;;0.40;0.40;;;6.80;99.90;;;;;;5076084;28;20449;-78
2023/04/12 05:48:18;;;;;;;0.30;0.30;;;6.80;99.90;;;;;;5075908;28;20883;-79
2023/04/12 05:50:51;;;;;;;0.83;0.60;;;6.90;99.90;;;;;;5075922;28;20495;-78
2023/04/12 05:53:17;;;;;;;0.30;0.30;;;6.80;99.90;;;;;;5076245;28;20521;-78
2023/04/12 05:55:44;;;;;;;0.57;0.40;;;6.80;99.90;;;;;;5075994;28;20456;-78
2023/04/12 05:58:11;;;;;;;1.17;0.60;;;6.80;99.90;;;;;;5075839;28;20461;-78
2023/04/12 06:00:40;;;;;;;1.87;0.87;;;6.90;99.90;;;;;;5075423;28;20470;-78
2023/04/12 06:03:09;;;;;;;0.50;0.40;;;6.90;99.90;;;;;;5075798;28;20477;-78
2023/04/12 06:05:36;;;;;;;0.40;0.40;;;6.90;99.90;;;;;;5075728;28;20477;-78
2023/04/12 06:08:04;;;;;;;0.50;0.40;;;6.90;99.90;;;;;;5075705;28;20429;-78
2023/04/12 06:10:31;;;;;;;0.60;0.40;;;6.90;99.90;;;;;;5075572;28;20493;-78
2023/04/12 06:12:58;;;;;;;0.67;0.50;;;7.00;99.90;;;;;;5074584;28;20457;-80
2023/04/12 06:15:25;;;;;;;0.30;0.30;;;7.00;99.90;;;;;;5074970;28;20832;-80
2023/04/12 06:17:51;;;;;;;0.50;0.50;;;7.10;99.90;;;;;;5075699;28;20449;-80
2023/04/12 06:20:20;;;;;;;0.40;0.40;;;7.10;99.90;;;;;;5075380;28;20523;-81
2023/04/12 06:22:46;;;;;;;0.40;0.33;;;7.10;99.90;;;;;;5075429;28;20503;-81
2023/04/12 06:25:15;;;;;;;0.40;0.33;;;7.10;99.90;;;;;;5075029;28;20859;-81
2023/04/12 06:27:41;;;;;;;0.40;0.40;;;7.20;99.90;;;;;;5075348;28;20501;-81
2023/04/12 06:30:09;;;;;;;0.53;0.53;;;7.20;99.90;;;;;;5075197;28;20515;-81
2023/04/12 06:32:37;;;;;;;0.30;0.30;;;7.20;99.90;;;;;;5075215;28;20453;-81
2023/04/12 06:35:04;;;;;;;0.40;0.40;;;7.30;99.90;;;;;;5074857;28;20941;-81
2023/04/12 06:37:32;;;;;;;0.30;0.30;;;7.30;99.90;;;;;;5075123;28;20456;-81
2023/04/12 06:39:59;;;;;;;0.30;0.30;;;7.40;99.90;;;;;;5075490;28;20827;-81
2023/04/12 06:42:25;;;;;;;0.50;0.40;;;7.40;99.90;;;;;;5075008;28;20457;-81
2023/04/12 06:44:52;;;;;;;0.70;0.30;;;7.50;99.90;;;;;;5074648;28;20960;-81
2023/04/12 06:47:19;;;;;;;0.50;0.50;;;7.50;99.90;;;;;;5074727;28;20853;-81
2023/04/12 06:49:45;;;;;;;0.30;0.30;;;7.50;99.90;;;;;;5074702;28;20500;-81
2023/04/12 06:52:12;;;;;;;0.80;0.50;;;7.60;99.90;;;;;;5074903;28;20453;-81
2023/04/12 06:54:41;;;;;;;0.50;0.50;;;7.60;99.90;;;;;;5074778;28;20441;-81
2023/04/12 06:57:09;;;;;;;0.30;0.30;;;7.60;99.90;;;;;;5074704;28;20548;-81
2023/04/12 06:59:36;;;;;;;0.40;0.30;;;7.60;99.90;;;;;;5074663;28;20519;-81
2023/04/12 07:02:02;;;;;;;0.40;0.40;;;7.70;99.90;;;;;;5074289;28;20948;-81
2023/04/12 07:04:29;;;;;;;0.60;0.60;;;7.70;99.90;;;;;;5075391;28;20445;-81
2023/04/12 07:06:56;;;;;;;0.60;0.50;;;7.80;99.90;;;;;;5074567;28;20810;-81
2023/04/12 07:09:23;;;;;;;0.30;0.30;;;7.90;99.90;;;;;;5074018;28;20453;-81
2023/04/12 07:11:51;;;;;;;0.40;0.40;;;7.90;99.90;;;;;;5074630;28;20441;-81
2023/04/12 07:14:25;;;;;;;0.40;0.40;;;7.90;99.90;;;;;;5074604;28;20806;-81
2023/04/12 07:17:01;;;;;;;0.60;0.30;;;7.90;99.90;;;;;;5074146;28;20429;-81
2023/04/12 07:19:28;;;;;;;0.30;0.30;;;7.90;99.90;;;;;;5074133;28;20440;-81
2023/04/12 07:21:59;;;;;;;0.30;0.30;;;8.00;99.90;;;;;;5074241;28;20526;-81
2023/04/12 07:24:25;;;;;;;0.30;0.30;;;8.10;99.90;;;;;;5073877;28;20425;-81
2023/04/12 07:26:54;;;;;;;0.40;0.30;;;8.10;99.90;;;;;;5074158;28;20454;-81
2023/04/12 07:29:21;;;;;;;0.40;0.40;;;8.20;99.90;;;;;;5073936;28;20446;-81
2023/04/12 07:31:59;;;;;;;0.40;0.30;;;8.20;99.90;;;;;;5074021;28;20456;-81
2023/04/12 07:34:26;;;;;;;0.73;0.43;;;8.30;99.90;;;;;;5074298;28;20461;-81
2023/04/12 07:36:53;;;;;;;0.40;0.30;;;8.30;99.90;;;;;;5073623;28;20461;-81
2023/04/12 07:39:19;;;;;;;1.27;0.50;;;8.30;99.90;;;;;;5073867;28;20437;-80
2023/04/12 07:41:47;;;;;;;0.50;0.50;;;8.40;99.90;;;;;;5074121;28;20446;-82
2023/04/12 07:44:15;;;;;;;0.33;0.33;;;8.50;99.90;;;;;;5073538;28;21003;-81
2023/04/12 07:46:42;;;;;;;2.00;0.43;;;8.60;99.90;;;;;;5073455;28;20469;-82
2023/04/12 07:49:10;;;;;;;3.03;0.73;;;8.70;99.90;;;;;;5073732;28;20445;-82
2023/04/12 07:51:36;;;;;;;4.10;0.60;;;8.80;99.90;;;;;;5073781;28;20893;-82
2023/04/12 07:54:03;;;;;;;0.50;0.50;;;8.80;99.90;;;;;;5073703;28;20442;-82
2023/04/12 07:56:30;;;;;;;0.50;0.47;;;8.90;99.90;;;;;;5073686;28;20450;-82
2023/04/12 07:58:57;;;;;;;0.80;0.53;;;9.00;99.90;;;;;;5073673;28;20448;-82
2023/04/12 08:01:25;;;;;;;0.60;0.40;;;9.10;99.90;;;;;;5073579;28;20496;-80
2023/04/12 08:03:52;;;;;;;1.03;0.57;;;9.10;99.90;;;;;;5073807;28;20449;-80
2023/04/12 08:06:18;;;;;;;0.43;0.43;;;9.20;99.90;;;;;;5073526;28;20446;-80
2023/04/12 08:08:45;;;;;;;0.50;0.50;;;9.30;99.90;;;;;;5073190;28;20444;-80
2023/04/12 08:11:12;;;;;;;0.50;0.50;;;9.30;99.90;;;;;;5073028;28;20481;-80
2023/04/12 08:13:38;;;;;;;0.43;0.43;;;9.40;99.90;;;;;;5073360;28;20456;-80
2023/04/12 08:16:07;;;;;;;5.40;0.50;;;9.30;99.90;;;;;;5073133;28;20450;-80
2023/04/12 08:18:35;;;;;;;0.60;0.50;;;9.40;99.90;;;;;;5073357;28;20457;-80
2023/04/12 08:21:02;;;;;;;2.30;0.40;;;9.30;99.90;;;;;;5073288;28;20469;-80
2023/04/12 08:23:28;;;;;;;0.40;0.33;;;9.40;99.90;;;;;;5073041;28;20458;-80
2023/04/12 08:26:01;;;;;;;0.50;0.50;;;9.30;99.90;;;;;;5073032;28;20928;-80
2023/04/12 08:28:28;;;;;;;1.07;0.40;;;9.40;99.90;;;;;;5073302;28;20441;-80
2023/04/12 08:31:01;;;;;;;0.40;0.30;;;9.40;99.90;;;;;;5072858;28;20486;-80
2023/04/12 08:33:27;;;;;;;0.40;0.40;;;9.60;99.90;;;;;;5073434;28;20448;-80
2023/04/12 08:35:55;;;;;;;0.93;0.60;;;9.60;99.90;;;;;;5073189;28;21003;-80
2023/04/12 08:38:22;;;;;;;0.60;0.30;;;9.60;99.90;;;;;;5076947;28;20460;-82
2023/04/12 08:40:49;;;;;;;0.60;0.60;;;9.70;99.90;;;;;;5077289;28;20465;-82
2023/04/12 08:43:18;;;;;;;0.30;0.30;;;9.70;99.90;;;;;;5077725;28;20821;-82
2023/04/12 08:45:46;;;;;;;1.53;0.50;;;9.80;99.90;;;;;;5077310;28;20544;-80
2023/04/12 08:48:13;;;;;;;0.83;0.40;;;9.70;99.90;;;;;;5076728;28;20477;-80
2023/04/12 08:50:43;;;;;;;0.83;0.83;;;9.70;99.90;;;;;;5076984;28;20489;-80
2023/04/12 08:53:11;;;;;;;0.50;0.50;;;9.70;99.90;;;;;;5076923;28;20928;-81
2023/04/12 08:55:38;;;;;;;0.60;0.57;;;9.50;99.90;;;;;;5076914;28;20815;-84
2023/04/12 08:58:08;;;;;;;0.70;0.50;;;9.50;99.90;;;;;;5077343;28;20506;-80
2023/04/12 09:00:36;;;;;;;0.80;0.47;;;9.50;99.90;;;;;;5076899;28;20477;-80
2023/04/12 09:03:03;;;;;;;0.83;0.40;;;9.60;99.90;;;;;;5076928;28;20449;-80
2023/04/12 09:05:30;;;;;;;0.60;0.40;;;9.70;99.90;;;;;;5076564;28;20777;-80
2023/04/12 09:07:57;;;;;;;0.40;0.30;;;9.70;99.90;;;;;;5076814;28;20514;-80
2023/04/12 09:10:32;;;;;;;0.50;0.50;;;9.80;99.90;;;;;;5076283;28;21010;-80
2023/04/12 09:12:59;;;;;;;0.40;0.40;;;9.80;99.90;;;;;;5076479;28;20757;-80
2023/04/12 09:15:26;;;;;;;1.33;0.50;;;9.90;99.90;;;;;;5076618;28;20454;-80
2023/04/12 09:18:04;;;;;;;0.60;0.60;;;9.90;99.90;;;;;;5076309;28;20430;-80
2023/04/12 09:20:31;;;;;;;0.53;0.53;;;9.90;99.90;;;;;;5076394;28;20477;-80
2023/04/12 09:22:59;;;;;;;0.70;0.43;;;9.90;99.90;;;;;;5076191;28;20958;-80
2023/04/12 09:25:39;;;;;;;0.60;0.60;;;9.90;99.90;;;;;;5076422;28;20885;-80
2023/04/12 09:28:21;;;;;;;0.50;0.40;;;10.00;99.90;;;;;;5076422;28;20436;-80
2023/04/12 09:30:51;;;;;;;0.40;0.33;;;10.10;99.90;;;;;;5076338;28;20853;-80
2023/04/12 09:33:19;;;;;;;0.60;0.50;;;10.20;99.90;;;;;;5076279;28;20556;-79
2023/04/12 09:35:46;;;;;;;0.40;0.40;;;10.20;99.90;;;;;;5076027;28;20979;-80
2023/04/12 09:38:12;;;;;;;1.43;0.57;;;10.30;99.90;;;;;;5076298;28;20528;-80
2023/04/12 09:40:41;;;;;;;0.43;0.43;;;10.30;99.90;;;;;;5076073;28;20469;-80
2023/04/12 09:43:08;;;;;;;1.60;0.70;;;10.40;99.90;;;;;;5076092;28;20448;-80
2023/04/12 09:45:37;;;;;;;1.00;0.60;;;10.30;99.90;;;;;;5076201;28;20449;-79
2023/04/12 09:48:04;;;;;;;0.50;0.50;;;10.50;99.90;;;;;;5075412;28;20488;-79
2023/04/12 09:50:32;;;;;;;0.50;0.47;;;10.70;99.90;;;;;;5075699;28;20477;-80
2023/04/12 09:53:00;;;;;;;0.60;0.47;;;10.70;99.90;;;;;;5076011;28;20532;-82
2023/04/12 09:55:28;;;;;;;0.83;0.60;;;10.60;99.90;;;;;;5076021;28;20498;-79
2023/04/12 09:57:57;;;;;;;0.60;0.60;;;10.60;99.90;;;;;;5075914;28;20537;-82
2023/04/12 10:00:25;;;;;;;1.23;0.87;;;10.60;99.90;;;;;;5075844;28;20544;-79
2023/04/12 10:02:53;;;;;;;1.30;0.80;;;10.60;99.90;;;;;;5075842;28;20855;-82
2023/04/12 10:05:24;;;;;;;0.40;0.40;;;10.80;99.90;;;;;;5075844;28;20449;-81
2023/04/12 10:07:51;;;;;;;0.50;0.50;;;10.90;99.90;;;;;;5075798;28;20434;-82
2023/04/12 10:10:20;;;;;;;0.60;0.47;;;11.10;99.90;;;;;;5075204;28;20980;-81
2023/04/12 10:12:48;;;;;;;1.33;0.67;;;11.30;99.90;;;;;;5075604;28;20445;-81
2023/04/12 10:15:17;;;;;;;1.77;0.40;;;11.30;99.90;;;;;;5075579;28;20460;-81
2023/04/12 10:17:45;;;;;;;0.50;0.50;;;11.30;99.90;;;;;;5075561;28;20532;-81
2023/04/12 10:20:13;;;;;;;0.60;0.60;;;11.50;99.90;;;;;;5075444;28;20473;-81
2023/04/12 10:22:41;;;;;;;1.70;0.70;;;11.60;99.90;;;;;;5075405;28;20441;-81
2023/04/12 10:25:12;;;;;;;0.70;0.40;;;11.50;99.90;;;;;;5075432;28;20493;-79
2023/04/12 10:27:41;;;;;;;1.60;0.57;;;11.50;99.90;;;;;;5075638;28;20495;-79
2023/04/12 10:30:23;;;;;;;0.73;0.73;;;11.60;99.90;;;;;;5074946;28;20984;-79
2023/04/12 10:33:06;;;;;;;1.13;0.90;;;11.80;99.90;;;;;;5075071;28;20415;-79
2023/04/12 10:35:50;;;;;;;0.53;0.53;;;11.80;99.90;;;;;;5075555;28;20450;-79
2023/04/12 10:38:17;;;;;;;0.40;0.40;;;12.20;99.90;;;;;;5075128;28;20469;-79
2023/04/12 10:41:12;;;;;;;0.40;0.40;;;12.30;99.90;;;;;;5075094;28;20462;-79
2023/04/12 10:43:39;;;;;;;0.50;0.47;;;12.40;99.90;;;;;;5075117;28;20476;-79
2023/04/12 10:46:08;;;;;;;1.37;1.23;;;12.30;99.90;;;;;;5074504;28;20479;-80
2023/04/12 10:48:36;;;;;;;0.40;0.30;;;12.10;99.90;;;;;;5075045;28;20418;-79
2023/04/12 10:51:24;;;;;;;0.50;0.40;;;12.20;99.90;;;;;;5074401;28;20516;-80
2023/04/12 10:53:51;;;;;;;0.50;0.50;;;12.20;99.90;;;;;;5075134;28;20429;-80
2023/04/12 10:56:40;;;;;;;0.43;0.40;;;12.40;99.90;;;;;;5074951;28;20886;-80
2023/04/12 10:59:08;;;;;;;0.63;0.40;;;12.60;99.90;;;;;;5074054;28;20434;-80
2023/04/12 11:01:36;;;;;;;0.60;0.60;;;12.70;99.90;;;;;;5074576;28;20469;-80
2023/04/12 11:04:21;;;;;;;0.60;0.40;;;13.00;99.90;;;;;;5074647;28;20434;-80
2023/04/12 11:06:55;;;;;;;1.03;0.40;;;13.50;99.90;;;;;;5074630;28;20425;-82
2023/04/12 11:09:24;;;;;;;0.90;0.60;;;13.60;99.90;;;;;;5074509;28;20426;-82
2023/04/12 11:11:51;;;;;;;1.03;0.70;;;13.70;99.90;;;;;;5074588;28;20477;-83
2023/04/12 11:14:23;;;;;;;0.60;0.40;;;13.80;99.90;;;;;;5074381;28;20430;-83
2023/04/12 11:17:23;;;;;;;1.10;0.50;;;13.90;99.90;;;;;;5074378;28;20430;-83
2023/04/12 11:19:52;;;;;;;0.80;0.40;;;13.90;99.90;;;;;;5061878;28;20476;-83
2023/04/12 11:22:21;;;;;;;0.40;0.40;;;13.50;99.90;;;;;;5074016;28;20460;-83
2023/04/12 11:24:50;;;;;;;0.40;0.40;;;13.70;99.90;;;;;;5074354;28;20437;-83
2023/04/12 11:27:18;;;;;;;0.80;0.60;;;13.90;99.90;;;;;;5074157;28;20559;-83
2023/04/12 11:29:47;;;;;;;0.60;0.60;;;13.80;99.90;;;;;;5074102;28;20535;-83
2023/04/12 11:32:14;;;;;;;0.40;0.40;;;13.90;99.90;;;;;;5074060;28;20480;-81
2023/04/12 11:34:44;;;;;;;1.43;0.53;;;14.20;99.90;;;;;;5073968;28;20440;-81
2023/04/12 11:37:11;;;;;;;0.50;0.50;;;14.00;99.90;;;;;;5074037;28;20525;-81
2023/04/12 11:39:40;;;;;;;0.50;0.50;;;14.10;99.90;;;;;;5073906;28;20461;-81
2023/04/12 11:42:12;;;;;;;0.70;0.50;;;14.10;99.90;;;;;;5073642;28;20959;-81
2023/04/12 11:44:40;;;;;;;0.50;0.40;;;13.90;99.90;;;;;;5073933;28;20436;-81
2023/04/12 11:47:14;;;;;;;0.63;0.40;;;14.10;99.90;;;;;;5073490;28;20512;-81
2023/04/12 11:49:45;;;;;;;0.70;0.40;;;14.10;99.90;;;;;;5073517;28;20988;-82
2023/04/12 11:52:12;;;;;;;0.70;0.40;;;14.30;99.90;;;;;;5073807;28;20466;-83
2023/04/12 11:54:43;;;;;;;0.70;0.63;;;14.40;99.90;;;;;;5073741;28;20458;-83
2023/04/12 11:57:12;;;;;;;0.40;0.30;;;14.60;99.90;;;;;;5073424;28;20461;-83
2023/04/12 11:59:38;;;;;;;0.67;0.67;;;14.50;99.90;;;;;;5073514;28;20888;-82
2023/04/12 12:02:07;;;;;;;0.40;0.33;;;14.30;99.90;;;;;;5073642;28;20449;-83
2023/04/12 12:04:34;;;;;;;0.40;0.30;;;14.20;99.90;;;;;;5073603;28;20564;-82
2023/04/12 12:07:02;;;;;;;0.50;0.40;;;14.20;99.90;;;;;;5073581;28;20812;-83
2023/04/12 12:09:30;;;;;;;0.40;0.40;;;14.10;99.90;;;;;;5073483;28;20818;-83
2023/04/12 12:11:58;;;;;;;0.67;0.33;;;14.10;99.90;;;;;;5073728;28;20480;-83
2023/04/12 12:14:26;;;;;;;0.50;0.50;;;14.20;99.90;;;;;;5073546;28;20503;-83
2023/04/12 12:16:55;;;;;;;0.50;0.50;;;14.30;99.90;;;;;;5073751;28;20529;-85
2023/04/12 12:19:32;;;;;;;0.40;0.30;;;14.30;99.90;;;;;;5073513;28;20506;-83
2023/04/12 12:22:14;;;;;;;0.43;0.40;;;14.30;99.90;;;;;;5073653;28;20442;-84
2023/04/12 12:24:52;;;;;;;0.60;0.50;;;14.30;99.90;;;;;;5073459;28;20453;-84
2023/04/12 12:27:20;;;;;;;0.50;0.40;;;14.50;99.90;;;;;;5073370;28;20432;-84
2023/04/12 12:29:50;;;;;;;1.20;0.67;;;14.70;99.90;;;;;;5072872;28;20997;-84
2023/04/12 12:32:18;;;;;;;0.83;0.50;;;15.10;99.90;;;;;;5072852;28;21070;-84
2023/04/12 12:34:51;;;;;;;0.40;0.30;;;15.30;99.90;;;;;;5073310;28;20547;-84
2023/04/12 12:37:23;;;;;;;0.30;0.30;;;15.20;99.90;;;;;;5073380;28;20458;-84
2023/04/12 12:40:16;;;;;;;0.70;0.30;;;15.30;99.90;;;;;;5073140;28;20832;-84
2023/04/12 12:42:47;;;;;;;0.40;0.30;;;15.20;99.90;;;;;;5072953;28;20877;-84
2023/04/12 12:45:14;;;;;;;0.40;0.33;;;14.90;99.90;;;;;;5072869;28;21056;-84
2023/04/12 12:47:49;;;;;;;1.23;0.40;;;14.70;99.90;;;;;;5072765;28;20469;-83
2023/04/12 12:50:17;;;;;;;0.50;0.40;;;14.70;99.90;;;;;;5072873;28;20963;-84
2023/04/12 12:52:46;;;;;;;0.40;0.30;;;14.50;99.90;;;;;;5072776;28;20513;-84
2023/04/12 12:55:13;;;;;;;0.50;0.37;;;14.50;99.90;;;;;;5073083;28;20445;-84
2023/04/12 12:57:41;;;;;;;0.83;0.50;;;14.20;99.90;;;;;;5072823;28;20949;-82
2023/04/12 13:00:09;;;;;;;0.33;0.30;;;14.20;99.90;;;;;;5072989;28;20473;-82
2023/04/12 13:02:36;;;;;;;0.70;0.43;;;14.30;99.90;;;;;;5072738;28;20937;-83
2023/04/12 13:05:04;;;;;;;1.07;0.50;;;14.30;99.90;;;;;;5073070;28;20456;-82